sensor_id;sensor_type;location;lat;lon;timestamp;temperature;humidity
8591;DHT22;4333;48.322;14.340;2022-08-01T00:01:40;19.40;99.90
8591;DHT22;4333;48.322;14.340;2022-08-01T00:04:06;19.50;99.90
8591;DHT22;4333;48.322;14.340;2022-08-01T00:06:31;19.40;99.90
8591;DHT22;4333;48.322;14.340;2022-08-01T00:09:00;19.50;99.90
8591;DHT22;4333;48.322;14.340;2022-08-01T00:11:27;19.50;99.90
8591;DHT22;4333;48.322;14.340;2022-08-01T00:13:53;19.50;99.90
8591;DHT22;4333;48.322;14.340;2022-08-01T00:16:19;19.50;99.90
8591;DHT22;4333;48.322;14.340;2022-08-01T00:18:50;19.50;99.90
8591;DHT22;4333;48.322;14.340;2022-08-01T00:21:16;19.20;99.90
8591;DHT22;4333;48.322;14.340;2022-08-01T00:23:43;19.20;99.90
8591;DHT22;4333;48.322;14.340;2022-08-01T00:26:11;19.20;99.90
8591;DHT22;4333;48.322;14.340;2022-08-01T00:28:37;19.30;99.90
8591;DHT22;4333;48.322;14.340;2022-08-01T00:31:08;19.40;99.90
8591;DHT22;4333;48.322;14.340;2022-08-01T00:33:34;19.50;99.90
8591;DHT22;4333;48.322;14.340;2022-08-01T00:35:59;19.60;99.90
8591;DHT22;4333;48.322;14.340;2022-08-01T00:38:25;19.60;99.90
8591;DHT22;4333;48.322;14.340;2022-08-01T00:40:51;19.30;99.90
8591;DHT22;4333;48.322;14.340;2022-08-01T00:43:17;19.20;99.90
8591;DHT22;4333;48.322;14.340;2022-08-01T00:45:45;19.10;99.90
8591;DHT22;4333;48.322;14.340;2022-08-01T00:48:11;19.10;99.90
8591;DHT22;4333;48.322;14.340;2022-08-01T00:50:37;19.10;99.90
8591;DHT22;4333;48.322;14.340;2022-08-01T00:53:04;19.20;99.90
8591;DHT22;4333;48.322;14.340;2022-08-01T00:55:31;19.30;99.90
8591;DHT22;4333;48.322;14.340;2022-08-01T00:57:58;19.30;99.90
8591;DHT22;4333;48.322;14.340;2022-08-01T01:00:25;19.30;99.90
8591;DHT22;4333;48.322;14.340;2022-08-01T01:02:54;19.30;99.90
8591;DHT22;4333;48.322;14.340;2022-08-01T01:05:19;19.20;99.90
8591;DHT22;4333;48.322;14.340;2022-08-01T01:08:00;19.20;99.90
8591;DHT22;4333;48.322;14.340;2022-08-01T01:10:48;19.30;99.90
8591;DHT22;4333;48.322;14.340;2022-08-01T01:13:52;19.30;99.90
8591;DHT22;4333;48.322;14.340;2022-08-01T01:16:13;19.50;99.90
8591;DHT22;4333;48.322;14.340;2022-08-01T01:18:49;19.50;99.90
8591;DHT22;4333;48.322;14.340;2022-08-01T01:29:19;19.10;99.90
8591;DHT22;4333;48.322;14.340;2022-08-01T01:31:57;19.00;99.90
8591;DHT22;4333;48.322;14.340;2022-08-01T01:34:28;19.10;99.90
8591;DHT22;4333;48.322;14.340;2022-08-01T01:36:54;19.10;99.90
8591;DHT22;4333;48.322;14.340;2022-08-01T01:39:24;19.10;99.90
8591;DHT22;4333;48.322;14.340;2022-08-01T01:41:53;19.10;99.90
8591;DHT22;4333;48.322;14.340;2022-08-01T01:44:19;19.20;99.90
8591;DHT22;4333;48.322;14.340;2022-08-01T01:46:46;19.20;99.90
8591;DHT22;4333;48.322;14.340;2022-08-01T01:49:12;19.10;99.90
8591;DHT22;4333;48.322;14.340;2022-08-01T01:51:40;19.10;99.90
8591;DHT22;4333;48.322;14.340;2022-08-01T01:54:10;19.10;99.90
8591;DHT22;4333;48.322;14.340;2022-08-01T01:56:42;19.20;99.90
8591;DHT22;4333;48.322;14.340;2022-08-01T01:59:19;19.30;99.90
8591;DHT22;4333;48.322;14.340;2022-08-01T02:01:47;19.30;99.90
8591;DHT22;4333;48.322;14.340;2022-08-01T02:04:14;19.30;99.90
8591;DHT22;4333;48.322;14.340;2022-08-01T02:06:40;19.10;99.90
8591;DHT22;4333;48.322;14.340;2022-08-01T02:09:08;19.10;99.90
8591;DHT22;4333;48.322;14.340;2022-08-01T02:11:39;19.20;99.90
8591;DHT22;4333;48.322;14.340;2022-08-01T02:14:09;19.20;99.90
8591;DHT22;4333;48.322;14.340;2022-08-01T02:16:39;19.30;99.90
8591;DHT22;4333;48.322;14.340;2022-08-01T02:19:05;19.20;99.90
8591;DHT22;4333;48.322;14.340;2022-08-01T02:21:41;19.10;99.90
8591;DHT22;4333;48.322;14.340;2022-08-01T02:24:35;19.00;99.90
8591;DHT22;4333;48.322;14.340;2022-08-01T02:27:09;19.00;99.90
8591;DHT22;4333;48.322;14.340;2022-08-01T02:29:49;19.10;99.90
8591;DHT22;4333;48.322;14.340;2022-08-01T02:32:24;19.00;99.90
8591;DHT22;4333;48.322;14.340;2022-08-01T02:34:52;19.10;99.90
8591;DHT22;4333;48.322;14.340;2022-08-01T02:37:20;19.10;99.90
8591;DHT22;4333;48.322;14.340;2022-08-01T02:39:52;19.10;99.90
8591;DHT22;4333;48.322;14.340;2022-08-01T02:42:23;19.10;99.90
8591;DHT22;4333;48.322;14.340;2022-08-01T02:44:54;19.00;99.90
8591;DHT22;4333;48.322;14.340;2022-08-01T02:47:22;19.00;99.90
8591;DHT22;4333;48.322;14.340;2022-08-01T02:49:52;19.00;99.90
8591;DHT22;4333;48.322;14.340;2022-08-01T02:52:20;19.00;99.90
8591;DHT22;4333;48.322;14.340;2022-08-01T02:54:49;19.00;99.90
8591;DHT22;4333;48.322;14.340;2022-08-01T02:57:18;19.10;99.90
8591;DHT22;4333;48.322;14.340;2022-08-01T02:59:45;19.10;99.90
8591;DHT22;4333;48.322;14.340;2022-08-01T03:02:13;19.10;99.90
8591;DHT22;4333;48.322;14.340;2022-08-01T03:04:40;19.10;99.90
8591;DHT22;4333;48.322;14.340;2022-08-01T03:07:08;18.90;99.90
8591;DHT22;4333;48.322;14.340;2022-08-01T03:09:38;18.80;99.90
8591;DHT22;4333;48.322;14.340;2022-08-01T03:12:09;18.70;99.90
8591;DHT22;4333;48.322;14.340;2022-08-01T03:14:40;18.70;99.90
8591;DHT22;4333;48.322;14.340;2022-08-01T03:17:09;18.70;99.90
8591;DHT22;4333;48.322;14.340;2022-08-01T03:19:38;18.80;99.90
8591;DHT22;4333;48.322;14.340;2022-08-01T03:22:08;18.80;99.90
8591;DHT22;4333;48.322;14.340;2022-08-01T03:24:36;18.70;99.90
8591;DHT22;4333;48.322;14.340;2022-08-01T03:27:04;18.70;99.90
8591;DHT22;4333;48.322;14.340;2022-08-01T03:29:34;18.70;99.90
8591;DHT22;4333;48.322;14.340;2022-08-01T03:32:06;18.70;99.90
8591;DHT22;4333;48.322;14.340;2022-08-01T03:34:32;18.70;99.90
8591;DHT22;4333;48.322;14.340;2022-08-01T03:37:09;18.70;99.90
8591;DHT22;4333;48.322;14.340;2022-08-01T03:39:50;18.70;99.90
8591;DHT22;4333;48.322;14.340;2022-08-01T03:42:23;18.80;99.90
8591;DHT22;4333;48.322;14.340;2022-08-01T03:44:57;18.80;99.90
8591;DHT22;4333;48.322;14.340;2022-08-01T03:47:29;18.80;99.90
8591;DHT22;4333;48.322;14.340;2022-08-01T03:49:56;18.70;99.90
8591;DHT22;4333;48.322;14.340;2022-08-01T03:52:27;18.80;99.90
8591;DHT22;4333;48.322;14.340;2022-08-01T03:54:59;18.80;99.90
8591;DHT22;4333;48.322;14.340;2022-08-01T03:57:28;18.70;99.90
8591;DHT22;4333;48.322;14.340;2022-08-01T03:59:59;18.60;99.90
8591;DHT22;4333;48.322;14.340;2022-08-01T04:02:26;18.60;99.90
8591;DHT22;4333;48.322;14.340;2022-08-01T04:04:53;18.60;99.90
8591;DHT22;4333;48.322;14.340;2022-08-01T04:07:24;18.60;99.90
8591;DHT22;4333;48.322;14.340;2022-08-01T04:09:51;18.70;99.90
8591;DHT22;4333;48.322;14.340;2022-08-01T04:12:17;18.70;99.90
8591;DHT22;4333;48.322;14.340;2022-08-01T04:14:45;18.80;99.90
8591;DHT22;4333;48.322;14.340;2022-08-01T04:17:11;18.90;99.90
8591;DHT22;4333;48.322;14.340;2022-08-01T04:19:37;18.90;99.90
8591;DHT22;4333;48.322;14.340;2022-08-01T04:22:04;18.90;99.90
8591;DHT22;4333;48.322;14.340;2022-08-01T04:24:31;18.80;99.90
8591;DHT22;4333;48.322;14.340;2022-08-01T04:27:00;18.70;99.90
8591;DHT22;4333;48.322;14.340;2022-08-01T04:29:28;18.70;99.90
8591;DHT22;4333;48.322;14.340;2022-08-01T04:31:55;18.70;99.90
8591;DHT22;4333;48.322;14.340;2022-08-01T04:34:25;18.80;99.90
8591;DHT22;4333;48.322;14.340;2022-08-01T04:36:54;18.80;99.90
8591;DHT22;4333;48.322;14.340;2022-08-01T04:39:26;18.80;99.90
8591;DHT22;4333;48.322;14.340;2022-08-01T04:41:54;18.70;99.90
8591;DHT22;4333;48.322;14.340;2022-08-01T04:44:23;18.60;99.90
8591;DHT22;4333;48.322;14.340;2022-08-01T04:46:50;18.60;99.90
8591;DHT22;4333;48.322;14.340;2022-08-01T04:49:20;18.60;99.90
8591;DHT22;4333;48.322;14.340;2022-08-01T04:51:51;18.70;99.90
8591;DHT22;4333;48.322;14.340;2022-08-01T04:54:18;18.80;99.90
8591;DHT22;4333;48.322;14.340;2022-08-01T04:56:45;18.90;99.90
8591;DHT22;4333;48.322;14.340;2022-08-01T04:59:11;18.90;99.90
8591;DHT22;4333;48.322;14.340;2022-08-01T05:01:55;19.00;99.90
8591;DHT22;4333;48.322;14.340;2022-08-01T05:04:21;19.00;99.90
8591;DHT22;4333;48.322;14.340;2022-08-01T05:06:46;19.00;99.90
8591;DHT22;4333;48.322;14.340;2022-08-01T05:09:12;19.00;99.90
8591;DHT22;4333;48.322;14.340;2022-08-01T05:11:38;18.90;99.90
8591;DHT22;4333;48.322;14.340;2022-08-01T05:14:03;19.10;99.90
8591;DHT22;4333;48.322;14.340;2022-08-01T05:16:29;19.20;99.90
8591;DHT22;4333;48.322;14.340;2022-08-01T05:18:57;19.20;99.90
8591;DHT22;4333;48.322;14.340;2022-08-01T05:21:23;19.20;99.90
8591;DHT22;4333;48.322;14.340;2022-08-01T05:23:49;19.20;99.90
8591;DHT22;4333;48.322;14.340;2022-08-01T05:26:16;19.30;99.90
8591;DHT22;4333;48.322;14.340;2022-08-01T05:28:42;19.40;99.90
8591;DHT22;4333;48.322;14.340;2022-08-01T05:31:07;19.50;99.90
8591;DHT22;4333;48.322;14.340;2022-08-01T05:33:37;19.50;99.90
8591;DHT22;4333;48.322;14.340;2022-08-01T05:36:03;19.60;99.90
8591;DHT22;4333;48.322;14.340;2022-08-01T05:38:28;19.70;99.90
8591;DHT22;4333;48.322;14.340;2022-08-01T05:40:54;19.80;99.90
8591;DHT22;4333;48.322;14.340;2022-08-01T05:43:20;19.80;99.90
8591;DHT22;4333;48.322;14.340;2022-08-01T05:45:46;19.90;99.90
8591;DHT22;4333;48.322;14.340;2022-08-01T05:48:11;19.90;99.90
8591;DHT22;4333;48.322;14.340;2022-08-01T05:50:38;20.00;99.90
8591;DHT22;4333;48.322;14.340;2022-08-01T05:53:06;20.00;99.90
8591;DHT22;4333;48.322;14.340;2022-08-01T05:55:35;20.10;99.90
8591;DHT22;4333;48.322;14.340;2022-08-01T05:58:01;20.20;99.90
8591;DHT22;4333;48.322;14.340;2022-08-01T06:00:27;20.20;99.90
8591;DHT22;4333;48.322;14.340;2022-08-01T06:02:53;20.30;99.90
8591;DHT22;4333;48.322;14.340;2022-08-01T06:05:18;20.30;99.90
8591;DHT22;4333;48.322;14.340;2022-08-01T06:07:45;20.40;99.90
8591;DHT22;4333;48.322;14.340;2022-08-01T06:10:11;20.40;99.90
8591;DHT22;4333;48.322;14.340;2022-08-01T06:12:39;20.50;99.90
8591;DHT22;4333;48.322;14.340;2022-08-01T06:15:06;20.60;99.90
8591;DHT22;4333;48.322;14.340;2022-08-01T06:17:32;20.70;99.90
8591;DHT22;4333;48.322;14.340;2022-08-01T06:19:58;20.80;99.90
8591;DHT22;4333;48.322;14.340;2022-08-01T06:22:26;20.80;99.90
8591;DHT22;4333;48.322;14.340;2022-08-01T06:24:51;20.90;99.90
8591;DHT22;4333;48.322;14.340;2022-08-01T06:27:17;21.00;99.90
8591;DHT22;4333;48.322;14.340;2022-08-01T06:29:43;21.10;99.90
8591;DHT22;4333;48.322;14.340;2022-08-01T06:32:11;21.20;99.90
8591;DHT22;4333;48.322;14.340;2022-08-01T06:34:37;21.30;99.90
8591;DHT22;4333;48.322;14.340;2022-08-01T06:37:02;21.40;99.90
8591;DHT22;4333;48.322;14.340;2022-08-01T06:39:28;21.50;99.90
8591;DHT22;4333;48.322;14.340;2022-08-01T06:41:54;21.60;99.90
8591;DHT22;4333;48.322;14.340;2022-08-01T06:44:19;21.70;99.90
8591;DHT22;4333;48.322;14.340;2022-08-01T06:46:45;21.80;99.90
8591;DHT22;4333;48.322;14.340;2022-08-01T06:49:13;21.90;99.90
8591;DHT22;4333;48.322;14.340;2022-08-01T06:51:41;22.00;99.90
8591;DHT22;4333;48.322;14.340;2022-08-01T06:54:07;22.00;99.90
8591;DHT22;4333;48.322;14.340;2022-08-01T06:56:33;21.90;99.90
8591;DHT22;4333;48.322;14.340;2022-08-01T06:59:00;21.70;99.90
8591;DHT22;4333;48.322;14.340;2022-08-01T07:01:27;21.50;99.90
8591;DHT22;4333;48.322;14.340;2022-08-01T07:03:53;21.50;99.90
8591;DHT22;4333;48.322;14.340;2022-08-01T07:06:23;21.50;99.90
8591;DHT22;4333;48.322;14.340;2022-08-01T07:08:52;21.50;99.90
8591;DHT22;4333;48.322;14.340;2022-08-01T07:11:19;21.60;99.90
8591;DHT22;4333;48.322;14.340;2022-08-01T07:13:47;21.70;99.90
8591;DHT22;4333;48.322;14.340;2022-08-01T07:16:14;21.80;99.90
8591;DHT22;4333;48.322;14.340;2022-08-01T07:18:46;21.80;99.90
8591;DHT22;4333;48.322;14.340;2022-08-01T07:21:14;21.80;99.90
8591;DHT22;4333;48.322;14.340;2022-08-01T07:23:42;21.80;99.90
8591;DHT22;4333;48.322;14.340;2022-08-01T07:26:10;21.80;99.90
8591;DHT22;4333;48.322;14.340;2022-08-01T07:28:38;21.80;99.90
8591;DHT22;4333;48.322;14.340;2022-08-01T07:31:04;21.80;99.90
8591;DHT22;4333;48.322;14.340;2022-08-01T07:33:32;21.90;99.90
8591;DHT22;4333;48.322;14.340;2022-08-01T07:35:58;21.90;99.90
8591;DHT22;4333;48.322;14.340;2022-08-01T07:38:23;21.90;99.90
8591;DHT22;4333;48.322;14.340;2022-08-01T07:40:49;22.10;99.90
8591;DHT22;4333;48.322;14.340;2022-08-01T07:43:20;22.20;99.90
8591;DHT22;4333;48.322;14.340;2022-08-01T07:45:48;22.20;99.90
8591;DHT22;4333;48.322;14.340;2022-08-01T07:48:14;22.40;99.90
8591;DHT22;4333;48.322;14.340;2022-08-01T07:50:40;22.40;99.90
8591;DHT22;4333;48.322;14.340;2022-08-01T07:53:06;22.60;99.90
8591;DHT22;4333;48.322;14.340;2022-08-01T07:55:31;22.90;99.90
8591;DHT22;4333;48.322;14.340;2022-08-01T07:57:57;22.90;99.90
8591;DHT22;4333;48.322;14.340;2022-08-01T08:00:23;23.00;99.90
8591;DHT22;4333;48.322;14.340;2022-08-01T08:02:49;23.10;99.90
8591;DHT22;4333;48.322;14.340;2022-08-01T08:05:14;23.10;99.90
8591;DHT22;4333;48.322;14.340;2022-08-01T08:07:40;23.30;99.90
8591;DHT22;4333;48.322;14.340;2022-08-01T08:10:06;23.20;99.90
8591;DHT22;4333;48.322;14.340;2022-08-01T08:12:32;23.20;99.90
8591;DHT22;4333;48.322;14.340;2022-08-01T08:14:58;23.20;99.90
8591;DHT22;4333;48.322;14.340;2022-08-01T08:17:28;23.00;99.90
8591;DHT22;4333;48.322;14.340;2022-08-01T08:19:54;23.20;99.90
8591;DHT22;4333;48.322;14.340;2022-08-01T08:22:20;23.30;99.90
8591;DHT22;4333;48.322;14.340;2022-08-01T08:24:46;23.30;99.90
8591;DHT22;4333;48.322;14.340;2022-08-01T08:27:11;23.60;99.90
8591;DHT22;4333;48.322;14.340;2022-08-01T08:29:37;23.80;99.90
8591;DHT22;4333;48.322;14.340;2022-08-01T08:32:03;23.80;99.90
8591;DHT22;4333;48.322;14.340;2022-08-01T08:34:29;23.90;99.90
8591;DHT22;4333;48.322;14.340;2022-08-01T08:36:56;24.60;99.90
8591;DHT22;4333;48.322;14.340;2022-08-01T08:39:22;25.00;99.90
8591;DHT22;4333;48.322;14.340;2022-08-01T08:41:48;24.80;99.90
8591;DHT22;4333;48.322;14.340;2022-08-01T08:44:14;24.80;99.90
8591;DHT22;4333;48.322;14.340;2022-08-01T08:46:50;25.20;99.90
8591;DHT22;4333;48.322;14.340;2022-08-01T08:49:20;25.90;99.90
8591;DHT22;4333;48.322;14.340;2022-08-01T08:51:48;26.70;99.90
8591;DHT22;4333;48.322;14.340;2022-08-01T08:54:15;26.80;97.60
8591;DHT22;4333;48.322;14.340;2022-08-01T08:56:42;27.10;98.60
8591;DHT22;4333;48.322;14.340;2022-08-01T08:59:13;27.20;96.10
8591;DHT22;4333;48.322;14.340;2022-08-01T09:01:39;26.60;95.50
8591;DHT22;4333;48.322;14.340;2022-08-01T09:04:05;26.10;97.50
8591;DHT22;4333;48.322;14.340;2022-08-01T09:06:32;25.60;98.10
8591;DHT22;4333;48.322;14.340;2022-08-01T09:08:58;25.90;97.90
8591;DHT22;4333;48.322;14.340;2022-08-01T09:11:27;26.20;96.10
8591;DHT22;4333;48.322;14.340;2022-08-01T09:14:14;26.70;96.80
8591;DHT22;4333;48.322;14.340;2022-08-01T09:16:43;27.40;94.80
8591;DHT22;4333;48.322;14.340;2022-08-01T09:19:17;26.70;94.40
8591;DHT22;4333;48.322;14.340;2022-08-01T09:22:04;27.30;95.70
8591;DHT22;4333;48.322;14.340;2022-08-01T09:24:31;27.30;93.00
8591;DHT22;4333;48.322;14.340;2022-08-01T09:26:58;27.20;93.60
8591;DHT22;4333;48.322;14.340;2022-08-01T09:29:27;27.60;91.10
8591;DHT22;4333;48.322;14.340;2022-08-01T09:31:55;27.60;94.20
8591;DHT22;4333;48.322;14.340;2022-08-01T09:34:29;27.50;90.70
8591;DHT22;4333;48.322;14.340;2022-08-01T09:36:58;27.80;91.20
8591;DHT22;4333;48.322;14.340;2022-08-01T09:39:37;28.20;92.70
8591;DHT22;4333;48.322;14.340;2022-08-01T09:42:23;28.00;89.40
8591;DHT22;4333;48.322;14.340;2022-08-01T09:44:50;28.50;89.70
8591;DHT22;4333;48.322;14.340;2022-08-01T09:47:16;28.90;85.30
8591;DHT22;4333;48.322;14.340;2022-08-01T09:49:44;28.70;83.30
8591;DHT22;4333;48.322;14.340;2022-08-01T09:52:12;29.00;86.00
8591;DHT22;4333;48.322;14.340;2022-08-01T09:54:42;28.40;81.90
8591;DHT22;4333;48.322;14.340;2022-08-01T09:57:16;28.30;84.30
8591;DHT22;4333;48.322;14.340;2022-08-01T09:59:45;28.00;84.60
8591;DHT22;4333;48.322;14.340;2022-08-01T10:02:12;28.50;83.40
8591;DHT22;4333;48.322;14.340;2022-08-01T10:04:51;29.10;78.50
8591;DHT22;4333;48.322;14.340;2022-08-01T10:07:18;29.00;76.30
8591;DHT22;4333;48.322;14.340;2022-08-01T10:09:45;29.30;76.70
8591;DHT22;4333;48.322;14.340;2022-08-01T10:12:14;29.60;78.50
8591;DHT22;4333;48.322;14.340;2022-08-01T10:14:43;30.00;78.20
8591;DHT22;4333;48.322;14.340;2022-08-01T10:17:13;30.40;72.60
8591;DHT22;4333;48.322;14.340;2022-08-01T10:19:40;30.50;72.00
8591;DHT22;4333;48.322;14.340;2022-08-01T10:22:14;29.40;70.80
8591;DHT22;4333;48.322;14.340;2022-08-01T10:24:45;28.40;74.80
8591;DHT22;4333;48.322;14.340;2022-08-01T10:27:16;28.30;81.60
8591;DHT22;4333;48.322;14.340;2022-08-01T10:30:00;28.40;79.90
8591;DHT22;4333;48.322;14.340;2022-08-01T10:32:32;29.00;81.90
8591;DHT22;4333;48.322;14.340;2022-08-01T10:35:00;29.30;73.00
8591;DHT22;4333;48.322;14.340;2022-08-01T10:37:29;28.70;74.60
8591;DHT22;4333;48.322;14.340;2022-08-01T10:39:55;28.20;79.20
8591;DHT22;4333;48.322;14.340;2022-08-01T10:42:22;28.10;79.60
8591;DHT22;4333;48.322;14.340;2022-08-01T10:44:49;28.70;82.00
8591;DHT22;4333;48.322;14.340;2022-08-01T10:47:20;29.40;76.10
8591;DHT22;4333;48.322;14.340;2022-08-01T10:49:58;30.20;74.10
8591;DHT22;4333;48.322;14.340;2022-08-01T10:52:27;30.70;69.70
8591;DHT22;4333;48.322;14.340;2022-08-01T10:55:06;29.80;69.40
8591;DHT22;4333;48.322;14.340;2022-08-01T10:57:45;29.90;73.10
8591;DHT22;4333;48.322;14.340;2022-08-01T11:00:18;30.50;72.40
8591;DHT22;4333;48.322;14.340;2022-08-01T11:03:01;30.80;67.90
8591;DHT22;4333;48.322;14.340;2022-08-01T11:08:09;30.10;66.40
8591;DHT22;4333;48.322;14.340;2022-08-01T11:10:41;30.50;68.30
8591;DHT22;4333;48.322;14.340;2022-08-01T11:13:08;30.60;63.50
8591;DHT22;4333;48.322;14.340;2022-08-01T11:15:37;30.60;62.70
8591;DHT22;4333;48.322;14.340;2022-08-01T11:20:57;31.60;57.80
8591;DHT22;4333;48.322;14.340;2022-08-01T11:23:25;31.10;56.00
8591;DHT22;4333;48.322;14.340;2022-08-01T11:28:19;30.30;62.80
8591;DHT22;4333;48.322;14.340;2022-08-01T11:30:54;30.80;61.60
8591;DHT22;4333;48.322;14.340;2022-08-01T11:38:44;31.10;57.00
8591;DHT22;4333;48.322;14.340;2022-08-01T11:41:23;30.00;55.30
8591;DHT22;4333;48.322;14.340;2022-08-01T11:44:10;29.60;55.00
8591;DHT22;4333;48.322;14.340;2022-08-01T11:57:14;29.00;58.90
8591;DHT22;4333;48.322;14.340;2022-08-01T11:59:46;29.10;56.90
8591;DHT22;4333;48.322;14.340;2022-08-01T12:02:18;29.50;57.10
8591;DHT22;4333;48.322;14.340;2022-08-01T12:04:48;30.10;57.10
8591;DHT22;4333;48.322;14.340;2022-08-01T12:07:14;29.60;54.50
8591;DHT22;4333;48.322;14.340;2022-08-01T12:09:40;29.50;57.20
8591;DHT22;4333;48.322;14.340;2022-08-01T12:12:07;29.80;59.10
8591;DHT22;4333;48.322;14.340;2022-08-01T12:14:34;30.00;56.70
8591;DHT22;4333;48.322;14.340;2022-08-01T12:16:59;29.80;56.20
8591;DHT22;4333;48.322;14.340;2022-08-01T12:19:25;30.00;56.80
8591;DHT22;4333;48.322;14.340;2022-08-01T12:22:17;30.30;56.00
8591;DHT22;4333;48.322;14.340;2022-08-01T12:24:47;30.90;56.90
8591;DHT22;4333;48.322;14.340;2022-08-01T12:27:29;31.10;54.20
8591;DHT22;4333;48.322;14.340;2022-08-01T12:29:58;31.40;54.40
8591;DHT22;4333;48.322;14.340;2022-08-01T12:32:31;31.10;51.00
8591;DHT22;4333;48.322;14.340;2022-08-01T12:37:39;30.40;53.20
8591;DHT22;4333;48.322;14.340;2022-08-01T12:42:50;29.70;55.60
8591;DHT22;4333;48.322;14.340;2022-08-01T12:45:22;29.50;63.70
8591;DHT22;4333;48.322;14.340;2022-08-01T12:47:52;29.30;76.10
8591;DHT22;4333;48.322;14.340;2022-08-01T12:50:23;28.90;75.40
8591;DHT22;4333;48.322;14.340;2022-08-01T12:52:51;28.70;78.90
8591;DHT22;4333;48.322;14.340;2022-08-01T12:55:20;28.50;81.10
8591;DHT22;4333;48.322;14.340;2022-08-01T12:58:02;28.50;82.50
8591;DHT22;4333;48.322;14.340;2022-08-01T13:00:28;28.50;85.70
8591;DHT22;4333;48.322;14.340;2022-08-01T13:03:20;28.60;93.20
8591;DHT22;4333;48.322;14.340;2022-08-01T13:08:19;28.80;94.90
8591;DHT22;4333;48.322;14.340;2022-08-01T13:10:49;29.20;93.40
8591;DHT22;4333;48.322;14.340;2022-08-01T13:13:17;29.30;92.40
8591;DHT22;4333;48.322;14.340;2022-08-01T13:15:46;29.20;79.90
8591;DHT22;4333;48.322;14.340;2022-08-01T13:18:31;28.60;87.70
8591;DHT22;4333;48.322;14.340;2022-08-01T13:23:37;26.10;99.90
8591;DHT22;4333;48.322;14.340;2022-08-01T13:26:04;24.90;99.90
8591;DHT22;4333;48.322;14.340;2022-08-01T13:28:33;24.20;99.90
8591;DHT22;4333;48.322;14.340;2022-08-01T13:31:06;23.70;99.90
8591;DHT22;4333;48.322;14.340;2022-08-01T13:33:46;22.70;99.90
8591;DHT22;4333;48.322;14.340;2022-08-01T13:36:13;22.20;99.90
8591;DHT22;4333;48.322;14.340;2022-08-01T13:38:41;21.60;99.90
8591;DHT22;4333;48.322;14.340;2022-08-01T13:41:26;20.70;99.90
8591;DHT22;4333;48.322;14.340;2022-08-01T13:43:54;20.40;99.90
8591;DHT22;4333;48.322;14.340;2022-08-01T13:46:22;20.10;99.90
8591;DHT22;4333;48.322;14.340;2022-08-01T13:48:48;20.10;99.90
8591;DHT22;4333;48.322;14.340;2022-08-01T13:51:14;20.20;99.90
8591;DHT22;4333;48.322;14.340;2022-08-01T13:53:44;20.20;99.90
8591;DHT22;4333;48.322;14.340;2022-08-01T13:56:11;20.10;99.90
8591;DHT22;4333;48.322;14.340;2022-08-01T13:58:37;20.00;99.90
8591;DHT22;4333;48.322;14.340;2022-08-01T14:01:07;19.90;99.90
8591;DHT22;4333;48.322;14.340;2022-08-01T14:03:34;20.00;99.90
8591;DHT22;4333;48.322;14.340;2022-08-01T14:06:00;20.20;99.90
8591;DHT22;4333;48.322;14.340;2022-08-01T14:08:28;20.40;99.90
8591;DHT22;4333;48.322;14.340;2022-08-01T14:10:54;21.10;99.90
8591;DHT22;4333;48.322;14.340;2022-08-01T14:13:23;21.80;99.90
8591;DHT22;4333;48.322;14.340;2022-08-01T14:15:49;22.50;99.90
8591;DHT22;4333;48.322;14.340;2022-08-01T14:18:15;23.00;99.90
8591;DHT22;4333;48.322;14.340;2022-08-01T14:20:42;23.80;99.90
8591;DHT22;4333;48.322;14.340;2022-08-01T14:23:08;24.50;99.90
8591;DHT22;4333;48.322;14.340;2022-08-01T14:25:39;25.00;99.90
8591;DHT22;4333;48.322;14.340;2022-08-01T14:28:06;25.70;99.90
8591;DHT22;4333;48.322;14.340;2022-08-01T14:30:34;26.20;99.90
8591;DHT22;4333;48.322;14.340;2022-08-01T14:33:00;26.60;99.90
8591;DHT22;4333;48.322;14.340;2022-08-01T14:35:28;26.90;99.90
8591;DHT22;4333;48.322;14.340;2022-08-01T14:37:54;27.40;99.90
8591;DHT22;4333;48.322;14.340;2022-08-01T14:40:20;28.00;99.90
8591;DHT22;4333;48.322;14.340;2022-08-01T14:42:46;28.50;99.90
8591;DHT22;4333;48.322;14.340;2022-08-01T14:45:12;28.90;99.90
8591;DHT22;4333;48.322;14.340;2022-08-01T14:47:42;28.70;97.10
8591;DHT22;4333;48.322;14.340;2022-08-01T14:50:13;28.10;99.90
8591;DHT22;4333;48.322;14.340;2022-08-01T14:52:39;27.80;99.90
8591;DHT22;4333;48.322;14.340;2022-08-01T14:55:07;27.60;99.90
8591;DHT22;4333;48.322;14.340;2022-08-01T14:57:33;27.40;97.40
8591;DHT22;4333;48.322;14.340;2022-08-01T14:59:59;27.70;99.90
8591;DHT22;4333;48.322;14.340;2022-08-01T15:02:25;28.20;95.20
8591;DHT22;4333;48.322;14.340;2022-08-01T15:04:51;28.00;94.00
8591;DHT22;4333;48.322;14.340;2022-08-01T15:07:18;28.20;96.80
8591;DHT22;4333;48.322;14.340;2022-08-01T15:09:44;28.70;96.40
8591;DHT22;4333;48.322;14.340;2022-08-01T15:12:11;28.90;92.50
8591;DHT22;4333;48.322;14.340;2022-08-01T15:14:37;28.70;90.30
8591;DHT22;4333;48.322;14.340;2022-08-01T15:17:19;28.20;90.30
8591;DHT22;4333;48.322;14.340;2022-08-01T15:19:46;28.40;91.50
8591;DHT22;4333;48.322;14.340;2022-08-01T15:22:12;28.80;90.80
8591;DHT22;4333;48.322;14.340;2022-08-01T15:24:38;29.10;87.40
8591;DHT22;4333;48.322;14.340;2022-08-01T15:27:07;29.50;87.40
8591;DHT22;4333;48.322;14.340;2022-08-01T15:29:33;29.10;83.80
8591;DHT22;4333;48.322;14.340;2022-08-01T15:32:02;28.70;85.40
8591;DHT22;4333;48.322;14.340;2022-08-01T15:34:28;28.70;81.60
8591;DHT22;4333;48.322;14.340;2022-08-01T15:36:57;28.70;83.20
8591;DHT22;4333;48.322;14.340;2022-08-01T15:39:26;28.90;86.00
8591;DHT22;4333;48.322;14.340;2022-08-01T15:41:52;29.10;90.80
8591;DHT22;4333;48.322;14.340;2022-08-01T15:44:17;29.00;84.40
8591;DHT22;4333;48.322;14.340;2022-08-01T15:46:46;29.20;87.60
8591;DHT22;4333;48.322;14.340;2022-08-01T15:49:12;29.00;89.70
8591;DHT22;4333;48.322;14.340;2022-08-01T15:51:38;28.90;92.10
8591;DHT22;4333;48.322;14.340;2022-08-01T15:54:04;29.00;92.90
8591;DHT22;4333;48.322;14.340;2022-08-01T15:56:32;28.80;94.50
8591;DHT22;4333;48.322;14.340;2022-08-01T15:58:58;28.70;95.40
8591;DHT22;4333;48.322;14.340;2022-08-01T16:01:24;28.20;95.60
8591;DHT22;4333;48.322;14.340;2022-08-01T16:03:54;28.00;97.00
8591;DHT22;4333;48.322;14.340;2022-08-01T16:06:20;28.00;97.60
8591;DHT22;4333;48.322;14.340;2022-08-01T16:08:46;28.40;98.10
8591;DHT22;4333;48.322;14.340;2022-08-01T16:11:14;28.50;96.00
8591;DHT22;4333;48.322;14.340;2022-08-01T16:13:40;28.40;95.70
8591;DHT22;4333;48.322;14.340;2022-08-01T16:16:09;28.10;95.60
8591;DHT22;4333;48.322;14.340;2022-08-01T16:18:37;27.70;96.50
8591;DHT22;4333;48.322;14.340;2022-08-01T16:21:04;27.30;96.50
8591;DHT22;4333;48.322;14.340;2022-08-01T16:23:32;27.00;97.70
8591;DHT22;4333;48.322;14.340;2022-08-01T16:25:58;26.80;98.60
8591;DHT22;4333;48.322;14.340;2022-08-01T16:28:23;26.60;99.00
8591;DHT22;4333;48.322;14.340;2022-08-01T16:30:49;26.60;99.20
8591;DHT22;4333;48.322;14.340;2022-08-01T16:33:15;26.80;99.50
8591;DHT22;4333;48.322;14.340;2022-08-01T16:35:41;26.80;99.20
8591;DHT22;4333;48.322;14.340;2022-08-01T16:38:10;26.70;98.50